Time,TemperatureF,DewpointF,PressureIn,WindDirection,WindDirectionDegrees,WindSpeedMPH,WindSpeedGustMPH,Humidity,HourlyPrecipIn,Conditions,Clouds,dailyrainin,SoftwareType,DateUTC
2013-10-09 00:12:00,68.0,31.0,29.75,SW,219,4.0,9.0,25,0.00,,,0.00,,2013-10-09 06:12:00,
2013-10-09 00:22:00,69.0,33.0,29.74,West,277,8.0,13.0,26,0.00,,,0.00,,2013-10-09 06:22:00,
2013-10-09 00:42:00,68.0,32.0,29.74,West,263,8.0,10.0,26,0.00,,,0.00,,2013-10-09 06:42:00,
2013-10-09 01:42:00,68.0,32.0,29.74,WNW,298,4.0,12.0,26,0.00,,,0.00,,2013-10-09 07:42:00,
2013-10-09 02:42:00,66.0,31.0,29.75,WSW,240,4.0,10.0,27,0.00,,,0.00,,2013-10-09 08:42:00,
2013-10-09 02:53:00,65.0,32.0,29.75,WSW,240,5.0,7.0,29,0.00,,,0.00,,2013-10-09 08:53:00,
2013-10-09 03:11:00,64.0,32.0,29.76,SW,225,6.0,8.0,30,0.00,,,0.00,,2013-10-09 09:11:00,
2013-10-09 03:22:00,64.0,33.0,29.75,SW,221,7.0,9.0,31,0.00,,,0.00,,2013-10-09 09:22:00,
2013-10-09 03:43:00,64.0,32.0,29.75,SW,221,7.0,9.0,30,0.00,,,0.00,,2013-10-09 09:43:00,
2013-10-09 03:53:00,64.0,32.0,29.75,SW,225,4.0,9.0,30,0.00,,,0.00,,2013-10-09 09:53:00,
2013-10-09 04:43:00,63.0,32.0,29.75,WNW,300,4.0,6.0,31,0.00,,,0.00,,2013-10-09 10:43:00,
2013-10-09 04:53:00,62.0,33.0,29.75,WNW,285,4.0,7.0,33,0.00,,,0.00,,2013-10-09 10:53:00,
2013-10-09 05:12:00,61.0,32.0,29.75,WSW,241,6.0,10.0,34,0.00,,,0.00,,2013-10-09 11:12:00,
2013-10-09 05:52:00,61.0,32.0,29.76,SW,227,5.0,8.0,33,0.00,,,0.00,,2013-10-09 11:52:00,
2013-10-09 06:12:00,61.0,32.0,29.76,SSW,205,6.0,8.0,33,0.00,,,0.00,,2013-10-09 12:12:00,
2013-10-09 08:22:00,61.0,31.0,29.78,SSW,205,10.0,11.0,32,0.00,,,0.00,,2013-10-09 14:22:00,
2013-10-09 08:42:00,61.0,32.0,29.78,SSW,205,9.0,11.0,33,0.00,,,0.00,,2013-10-09 14:42:00,
2013-10-09 08:52:00,63.0,33.0,29.79,SSW,209,11.0,13.0,32,0.00,,,0.00,,2013-10-09 14:52:00,
2013-10-09 09:11:00,62.0,33.0,29.79,SW,214,16.0,18.0,33,0.00,,,0.00,,2013-10-09 15:11:00,
2013-10-09 09:43:00,63.0,35.0,29.80,WSW,238,15.0,19.0,35,0.00,,,0.00,,2013-10-09 15:43:00,
2013-10-09 09:53:00,63.0,35.0,29.79,WSW,238,18.0,21.0,35,0.00,,,0.00,,2013-10-09 15:53:00,
2013-10-09 10:13:00,64.0,37.0,29.80,WSW,238,20.0,26.0,36,0.00,,,0.00,,2013-10-09 16:13:00,
2013-10-09 10:24:00,64.0,38.0,29.80,WSW,245,23.0,27.0,38,0.00,,,0.00,,2013-10-09 16:24:00,
2013-10-09 10:42:00,65.0,39.0,29.80,West,265,21.0,26.0,38,0.00,,,0.00,,2013-10-09 16:42:00,
2013-10-09 10:52:00,66.0,39.0,29.80,SW,227,14.0,23.0,37,0.00,,,0.00,,2013-10-09 16:52:00,
2013-10-09 11:12:00,67.0,40.0,29.80,WSW,252,15.0,22.0,37,0.00,,,0.00,,2013-10-09 17:12:00,
2013-10-09 11:22:00,68.0,41.0,29.80,WSW,256,19.0,28.0,38,0.00,,,0.00,,2013-10-09 17:22:00,
2013-10-09 11:42:00,69.0,42.0,29.80,WSW,250,14.0,27.0,37,0.00,,,0.00,,2013-10-09 17:42:00,
2013-10-09 11:52:00,71.0,41.0,29.79,SW,234,20.0,28.0,34,0.00,,,0.00,,2013-10-09 17:52:00,
2013-10-09 12:02:00,71.0,41.0,29.79,SW,234,20.0,28.0,34,0.00,,,0.00,,2013-10-09 18:02:00,
2013-10-09 12:12:00,71.0,41.0,29.79,SW,234,20.0,28.0,34,0.00,,,0.00,,2013-10-09 18:12:00,
2013-10-09 12:22:00,72.0,41.0,29.78,West,259,23.0,30.0,32,0.00,,,0.00,,2013-10-09 18:22:00,
2013-10-09 12:42:00,71.0,40.0,29.76,SW,219,21.0,27.0,33,0.00,,,0.00,,2013-10-09 18:42:00,
2013-10-09 12:52:00,71.0,40.0,29.77,SSW,206,18.0,27.0,32,0.00,,,0.00,,2013-10-09 18:52:00,
2013-10-09 13:11:00,72.0,37.0,29.77,SSW,196,18.0,26.0,28,0.00,,,0.00,,2013-10-09 19:11:00,
2013-10-09 13:22:00,71.0,36.0,29.76,SSW,209,20.0,25.0,28,0.00,,,0.00,,2013-10-09 19:22:00,
2013-10-09 13:42:00,73.0,36.0,29.76,SW,225,15.0,25.0,26,0.00,,,0.00,,2013-10-09 19:42:00,
2013-10-09 13:52:00,73.0,36.0,29.75,SW,232,17.0,26.0,26,0.00,,,0.00,,2013-10-09 19:52:00,
2013-10-09 14:11:00,73.0,36.0,29.74,SW,236,18.0,32.0,26,0.00,,,0.00,,2013-10-09 20:11:00,
2013-10-09 14:22:00,73.0,38.0,29.73,SSW,213,19.0,31.0,28,0.00,,,0.00,,2013-10-09 20:22:00,
2013-10-09 14:43:00,74.0,39.0,29.72,SSW,196,18.0,28.0,28,0.00,,,0.00,,2013-10-09 20:43:00,
2013-10-09 14:52:00,75.0,37.0,29.72,SW,234,24.0,32.0,25,0.00,,,0.00,,2013-10-09 20:52:00,
2013-10-09 15:11:00,75.0,37.0,29.71,SW,232,23.0,28.0,25,0.00,,,0.00,,2013-10-09 21:11:00,
2013-10-09 15:22:00,76.0,36.0,29.70,SSW,211,19.0,25.0,23,0.00,,,0.00,,2013-10-09 21:22:00,
2013-10-09 15:44:00,77.0,35.0,29.70,West,269,16.0,23.0,22,0.00,,,0.00,,2013-10-09 21:44:00,
2013-10-09 15:53:00,77.0,35.0,29.70,WSW,246,14.0,22.0,22,0.00,,,0.00,,2013-10-09 21:53:00,
2013-10-09 16:13:00,77.0,35.0,29.70,WSW,258,16.0,25.0,22,0.00,,,0.00,,2013-10-09 22:13:00,
2013-10-09 16:24:00,77.0,36.0,29.69,SW,233,20.0,26.0,23,0.00,,,0.00,,2013-10-09 22:24:00,
2013-10-09 16:43:00,76.0,37.0,29.69,SSW,211,13.0,23.0,24,0.00,,,0.00,,2013-10-09 22:43:00,
2013-10-09 16:53:00,77.0,38.0,29.68,SSW,199,17.0,22.0,25,0.00,,,0.00,,2013-10-09 22:53:00,
2013-10-09 17:12:00,76.0,38.0,29.68,South,174,17.0,24.0,25,0.00,,,0.00,,2013-10-09 23:12:00,
2013-10-09 17:22:00,77.0,37.0,29.67,SSW,192,19.0,26.0,24,0.00,,,0.00,,2013-10-09 23:22:00,
2013-10-09 17:43:00,76.0,38.0,29.68,SSW,198,17.0,30.0,25,0.00,,,0.00,,2013-10-09 23:43:00,
2013-10-09 17:53:00,76.0,38.0,29.68,SSW,196,21.0,26.0,25,0.00,,,0.00,,2013-10-09 23:53:00,
2013-10-09 18:12:00,76.0,38.0,29.67,SSW,192,17.0,22.0,25,0.00,,,0.00,,2013-10-10 00:12:00,
2013-10-09 18:22:00,76.0,39.0,29.67,South,182,18.0,25.0,26,0.00,,,0.00,,2013-10-10 00:22:00,
2013-10-09 18:42:00,76.0,39.0,29.67,South,191,19.0,27.0,26,0.00,,,0.00,,2013-10-10 00:42:00,
2013-10-09 18:52:00,75.0,37.0,29.67,South,185,23.0,29.0,25,0.00,,,0.00,,2013-10-10 00:52:00,
2013-10-09 19:11:00,75.0,37.0,29.67,South,188,19.0,30.0,25,0.00,,,0.00,,2013-10-10 01:11:00,
2013-10-09 19:21:00,74.0,40.0,29.68,SW,214,24.0,37.0,29,0.00,,,0.00,,2013-10-10 01:21:00,
2013-10-09 19:42:00,74.0,39.0,29.69,WSW,244,13.0,19.0,28,0.00,,,0.00,,2013-10-10 01:42:00,
2013-10-09 19:52:00,72.0,43.0,29.70,NW,317,9.0,13.0,35,0.02,,,0.02,,2013-10-10 01:52:00,
2013-10-09 20:12:00,72.0,41.0,29.70,SSW,211,13.0,18.0,32,0.02,,,0.02,,2013-10-10 02:12:00,
2013-10-09 20:22:00,73.0,41.0,29.70,West,273,12.0,16.0,31,0.03,,,0.03,,2013-10-10 02:22:00,
2013-10-09 21:12:00,72.0,41.0,29.70,West,271,17.0,22.0,32,0.01,,,0.03,,2013-10-10 03:12:00,
2013-10-09 21:22:00,71.0,39.0,29.71,West,270,15.0,18.0,31,0.00,,,0.03,,2013-10-10 03:22:00,
2013-10-09 21:44:00,71.0,38.0,29.71,West,271,15.0,20.0,30,0.00,,,0.03,,2013-10-10 03:44:00,
2013-10-09 21:54:00,71.0,38.0,29.72,West,271,11.0,17.0,30,0.00,,,0.03,,2013-10-10 03:54:00,
2013-10-09 22:13:00,71.0,37.0,29.72,WSW,244,10.0,16.0,29,0.00,,,0.03,,2013-10-10 04:13:00,
2013-10-09 22:24:00,71.0,37.0,29.72,WSW,244,10.0,16.0,29,0.00,,,0.03,,2013-10-10 04:24:00,
2013-10-09 22:54:00,68.0,40.0,29.73,West,277,8.0,17.0,36,0.01,,,0.04,,2013-10-10 04:54:00,
2013-10-09 23:12:00,69.0,39.0,29.73,West,261,5.0,10.0,34,0.01,,,0.04,,2013-10-10 05:12:00,
2013-10-09 23:22:00,68.0,40.0,29.73,SW,216,8.0,12.0,36,0.01,,,0.04,,2013-10-10 05:22:00,
2013-10-09 23:43:00,69.0,39.0,29.73,SW,217,10.0,13.0,34,0.01,,,0.04,,2013-10-10 05:43:00,
2013-10-09 23:52:00,69.0,39.0,29.73,SSW,207,11.0,13.0,33,0.00,,,0.04,,2013-10-10 05:52:00,